sensor_id;sensor_type;location;lat;lon;timestamp;pressure;altitude;pressure_sealevel;temperature
69545;BMP180;56766;52.260;20.746;2023-10-31T00:01:26;99203.40;;;10.10
69545;BMP180;56766;52.260;20.746;2023-10-31T00:03:53;99205.60;;;10.02
69545;BMP180;56766;52.260;20.746;2023-10-31T00:06:19;99212.60;;;10.00
69545;BMP180;56766;52.260;20.746;2023-10-31T00:08:46;99213.20;;;10.00
69545;BMP180;56766;52.260;20.746;2023-10-31T00:11:13;99208.40;;;10.00
69545;BMP180;56766;52.260;20.746;2023-10-31T00:13:39;99207.60;;;10.00
69545;BMP180;56766;52.260;20.746;2023-10-31T00:16:06;99204.00;;;10.00
69545;BMP180;56766;52.260;20.746;2023-10-31T00:18:33;99193.60;;;10.00
69545;BMP180;56766;52.260;20.746;2023-10-31T00:21:00;99190.80;;;10.00
69545;BMP180;56766;52.260;20.746;2023-10-31T00:23:26;99189.40;;;9.90
69545;BMP180;56766;52.260;20.746;2023-10-31T00:25:53;99176.00;;;9.90
69545;BMP180;56766;52.260;20.746;2023-10-31T00:28:20;99180.60;;;9.90
69545;BMP180;56766;52.260;20.746;2023-10-31T00:30:47;99180.40;;;9.90
69545;BMP180;56766;52.260;20.746;2023-10-31T00:33:13;99176.40;;;9.90
69545;BMP180;56766;52.260;20.746;2023-10-31T00:35:40;99178.00;;;9.90
69545;BMP180;56766;52.260;20.746;2023-10-31T00:38:06;99168.80;;;9.90
69545;BMP180;56766;52.260;20.746;2023-10-31T00:40:33;99167.60;;;9.90
69545;BMP180;56766;52.260;20.746;2023-10-31T00:43:00;99171.60;;;9.90
69545;BMP180;56766;52.260;20.746;2023-10-31T00:45:27;99165.20;;;9.90
69545;BMP180;56766;52.260;20.746;2023-10-31T00:47:53;99171.00;;;9.90
69545;BMP180;56766;52.260;20.746;2023-10-31T00:50:20;99156.80;;;9.90
69545;BMP180;56766;52.260;20.746;2023-10-31T00:52:47;99149.40;;;9.90
69545;BMP180;56766;52.260;20.746;2023-10-31T00:55:13;99145.00;;;9.90
69545;BMP180;56766;52.260;20.746;2023-10-31T00:57:40;99133.40;;;9.90
69545;BMP180;56766;52.260;20.746;2023-10-31T01:00:07;99130.80;;;9.90
69545;BMP180;56766;52.260;20.746;2023-10-31T01:02:36;99126.00;;;9.98
69545;BMP180;56766;52.260;20.746;2023-10-31T01:05:02;99110.40;;;10.00
69545;BMP180;56766;52.260;20.746;2023-10-31T01:07:29;99108.80;;;10.00
69545;BMP180;56766;52.260;20.746;2023-10-31T01:09:56;99106.60;;;10.00
69545;BMP180;56766;52.260;20.746;2023-10-31T01:12:23;99098.20;;;10.00
69545;BMP180;56766;52.260;20.746;2023-10-31T01:14:49;99093.40;;;10.00
69545;BMP180;56766;52.260;20.746;2023-10-31T01:17:16;99074.00;;;10.00
69545;BMP180;56766;52.260;20.746;2023-10-31T01:19:43;99061.40;;;10.00
69545;BMP180;56766;52.260;20.746;2023-10-31T01:22:09;99062.60;;;10.00
69545;BMP180;56766;52.260;20.746;2023-10-31T01:24:36;99058.20;;;10.00
69545;BMP180;56766;52.260;20.746;2023-10-31T01:27:03;99061.80;;;10.00
69545;BMP180;56766;52.260;20.746;2023-10-31T01:29:30;99058.60;;;10.00
69545;BMP180;56766;52.260;20.746;2023-10-31T01:31:59;99067.80;;;10.00
69545;BMP180;56766;52.260;20.746;2023-10-31T01:34:26;99073.80;;;10.00
69545;BMP180;56766;52.260;20.746;2023-10-31T01:36:52;99073.60;;;10.08
69545;BMP180;56766;52.260;20.746;2023-10-31T01:39:19;99073.40;;;10.10
69545;BMP180;56766;52.260;20.746;2023-10-31T01:41:46;99066.20;;;10.10
69545;BMP180;56766;52.260;20.746;2023-10-31T01:44:13;99067.20;;;10.10
69545;BMP180;56766;52.260;20.746;2023-10-31T01:46:39;99055.80;;;10.12
69545;BMP180;56766;52.260;20.746;2023-10-31T01:49:06;99042.20;;;10.18
69545;BMP180;56766;52.260;20.746;2023-10-31T01:51:33;99026.80;;;10.20
69545;BMP180;56766;52.260;20.746;2023-10-31T01:54:00;98998.60;;;10.20
69545;BMP180;56766;52.260;20.746;2023-10-31T01:56:27;98981.00;;;10.20
69545;BMP180;56766;52.260;20.746;2023-10-31T01:58:54;98977.40;;;10.20
69545;BMP180;56766;52.260;20.746;2023-10-31T02:01:21;98984.40;;;10.22
69545;BMP180;56766;52.260;20.746;2023-10-31T02:03:48;98984.00;;;10.22
69545;BMP180;56766;52.260;20.746;2023-10-31T02:06:15;98979.80;;;10.30
69545;BMP180;56766;52.260;20.746;2023-10-31T02:08:42;98974.20;;;10.30
69545;BMP180;56766;52.260;20.746;2023-10-31T02:11:09;98965.60;;;10.30
69545;BMP180;56766;52.260;20.746;2023-10-31T02:13:36;98955.00;;;10.32
69545;BMP180;56766;52.260;20.746;2023-10-31T02:16:04;98954.80;;;10.36
69545;BMP180;56766;52.260;20.746;2023-10-31T02:18:32;98950.40;;;10.40
69545;BMP180;56766;52.260;20.746;2023-10-31T02:20:59;98945.80;;;10.40
69545;BMP180;56766;52.260;20.746;2023-10-31T02:23:26;98940.00;;;10.40
69545;BMP180;56766;52.260;20.746;2023-10-31T02:25:52;98937.40;;;10.44
69545;BMP180;56766;52.260;20.746;2023-10-31T02:28:19;98930.60;;;10.50
69545;BMP180;56766;52.260;20.746;2023-10-31T02:30:46;98929.80;;;10.50
69545;BMP180;56766;52.260;20.746;2023-10-31T02:33:13;98927.60;;;10.50
69545;BMP180;56766;52.260;20.746;2023-10-31T02:35:39;98917.40;;;10.50
69545;BMP180;56766;52.260;20.746;2023-10-31T02:38:06;98923.20;;;10.58
69545;BMP180;56766;52.260;20.746;2023-10-31T02:40:32;98926.20;;;10.60
69545;BMP180;56766;52.260;20.746;2023-10-31T02:42:59;98917.80;;;10.60
69545;BMP180;56766;52.260;20.746;2023-10-31T02:45:26;98911.60;;;10.60
69545;BMP180;56766;52.260;20.746;2023-10-31T02:47:52;98905.60;;;10.60
69545;BMP180;56766;52.260;20.746;2023-10-31T02:50:19;98905.40;;;10.66
69545;BMP180;56766;52.260;20.746;2023-10-31T02:52:46;98891.80;;;10.70
69545;BMP180;56766;52.260;20.746;2023-10-31T02:55:13;98888.80;;;10.70
69545;BMP180;56766;52.260;20.746;2023-10-31T02:57:39;98891.60;;;10.70
69545;BMP180;56766;52.260;20.746;2023-10-31T03:00:07;98875.00;;;10.80
69545;BMP180;56766;52.260;20.746;2023-10-31T03:02:33;98865.00;;;10.80
69545;BMP180;56766;52.260;20.746;2023-10-31T03:05:00;98858.00;;;10.78
69545;BMP180;56766;52.260;20.746;2023-10-31T03:07:26;98856.60;;;10.80
69545;BMP180;56766;52.260;20.746;2023-10-31T03:09:53;98851.20;;;10.80
69545;BMP180;56766;52.260;20.746;2023-10-31T03:12:20;98853.20;;;10.80
69545;BMP180;56766;52.260;20.746;2023-10-31T03:14:47;98854.40;;;10.80
69545;BMP180;56766;52.260;20.746;2023-10-31T03:17:14;98859.00;;;10.80
69545;BMP180;56766;52.260;20.746;2023-10-31T03:19:40;98852.20;;;10.80
69545;BMP180;56766;52.260;20.746;2023-10-31T03:22:07;98848.20;;;10.82
69545;BMP180;56766;52.260;20.746;2023-10-31T03:24:34;98842.20;;;10.90
69545;BMP180;56766;52.260;20.746;2023-10-31T03:27:00;98840.80;;;10.90
69545;BMP180;56766;52.260;20.746;2023-10-31T03:29:27;98836.20;;;10.94
69545;BMP180;56766;52.260;20.746;2023-10-31T03:31:53;98832.60;;;11.00
69545;BMP180;56766;52.260;20.746;2023-10-31T03:34:20;98826.60;;;11.00
69545;BMP180;56766;52.260;20.746;2023-10-31T03:36:47;98820.80;;;11.00
69545;BMP180;56766;52.260;20.746;2023-10-31T03:39:13;98808.20;;;11.10
69545;BMP180;56766;52.260;20.746;2023-10-31T03:41:40;98797.00;;;11.10
69545;BMP180;56766;52.260;20.746;2023-10-31T03:44:09;98801.60;;;11.14
69545;BMP180;56766;52.260;20.746;2023-10-31T03:46:35;98795.80;;;11.20
69545;BMP180;56766;52.260;20.746;2023-10-31T03:49:02;98787.00;;;11.20
69545;BMP180;56766;52.260;20.746;2023-10-31T03:51:29;98779.40;;;11.20
69545;BMP180;56766;52.260;20.746;2023-10-31T03:53:56;98769.40;;;11.22
69545;BMP180;56766;52.260;20.746;2023-10-31T03:56:23;98758.80;;;11.30
69545;BMP180;56766;52.260;20.746;2023-10-31T03:58:49;98761.40;;;11.30
69545;BMP180;56766;52.260;20.746;2023-10-31T04:01:16;98758.60;;;11.30
69545;BMP180;56766;52.260;20.746;2023-10-31T04:03:43;98751.80;;;11.38
69545;BMP180;56766;52.260;20.746;2023-10-31T04:06:10;98746.60;;;11.40
69545;BMP180;56766;52.260;20.746;2023-10-31T04:08:37;98738.40;;;11.40
69545;BMP180;56766;52.260;20.746;2023-10-31T04:11:03;98735.60;;;11.40
69545;BMP180;56766;52.260;20.746;2023-10-31T04:13:30;98735.20;;;11.44
69545;BMP180;56766;52.260;20.746;2023-10-31T04:15:57;98736.80;;;11.50
69545;BMP180;56766;52.260;20.746;2023-10-31T04:18:23;98728.20;;;11.50
69545;BMP180;56766;52.260;20.746;2023-10-31T04:20:50;98729.20;;;11.56
69545;BMP180;56766;52.260;20.746;2023-10-31T04:23:16;98720.40;;;11.60
69545;BMP180;56766;52.260;20.746;2023-10-31T04:25:43;98718.40;;;11.60
69545;BMP180;56766;52.260;20.746;2023-10-31T04:28:10;98708.60;;;11.70
69545;BMP180;56766;52.260;20.746;2023-10-31T04:30:36;98717.20;;;11.70
69545;BMP180;56766;52.260;20.746;2023-10-31T04:33:03;98713.00;;;11.70
69545;BMP180;56766;52.260;20.746;2023-10-31T04:35:30;98703.60;;;11.70
69545;BMP180;56766;52.260;20.746;2023-10-31T04:37:56;98691.00;;;11.80
69545;BMP180;56766;52.260;20.746;2023-10-31T04:40:23;98684.00;;;11.80
69545;BMP180;56766;52.260;20.746;2023-10-31T04:42:50;98679.80;;;11.80
69545;BMP180;56766;52.260;20.746;2023-10-31T04:45:16;98677.80;;;11.90
69545;BMP180;56766;52.260;20.746;2023-10-31T04:47:43;98671.40;;;11.90
69545;BMP180;56766;52.260;20.746;2023-10-31T04:50:09;98661.20;;;11.90
69545;BMP180;56766;52.260;20.746;2023-10-31T04:52:36;98652.60;;;11.96
69545;BMP180;56766;52.260;20.746;2023-10-31T04:55:03;98658.00;;;12.00
69545;BMP180;56766;52.260;20.746;2023-10-31T04:57:31;98648.20;;;12.00
69545;BMP180;56766;52.260;20.746;2023-10-31T04:59:57;98638.80;;;12.00
69545;BMP180;56766;52.260;20.746;2023-10-31T05:02:26;98636.60;;;12.00
69545;BMP180;56766;52.260;20.746;2023-10-31T05:04:52;98624.60;;;12.10
69545;BMP180;56766;52.260;20.746;2023-10-31T05:07:19;98618.40;;;12.10
69545;BMP180;56766;52.260;20.746;2023-10-31T05:09:46;98617.00;;;12.12
69545;BMP180;56766;52.260;20.746;2023-10-31T05:12:12;98618.60;;;12.20
69545;BMP180;56766;52.260;20.746;2023-10-31T05:14:40;98612.00;;;12.20
69545;BMP180;56766;52.260;20.746;2023-10-31T05:17:07;98616.80;;;12.20
69545;BMP180;56766;52.260;20.746;2023-10-31T05:19:34;98613.60;;;12.20
69545;BMP180;56766;52.260;20.746;2023-10-31T05:22:00;98613.40;;;12.26
69545;BMP180;56766;52.260;20.746;2023-10-31T05:24:27;98613.40;;;12.30
69545;BMP180;56766;52.260;20.746;2023-10-31T05:26:53;98609.80;;;12.30
69545;BMP180;56766;52.260;20.746;2023-10-31T05:29:20;98601.00;;;12.30
69545;BMP180;56766;52.260;20.746;2023-10-31T05:31:47;98608.00;;;12.30
69545;BMP180;56766;52.260;20.746;2023-10-31T05:34:13;98618.60;;;12.30
69545;BMP180;56766;52.260;20.746;2023-10-31T05:36:40;98613.40;;;12.30
69545;BMP180;56766;52.260;20.746;2023-10-31T05:39:07;98608.80;;;12.40
69545;BMP180;56766;52.260;20.746;2023-10-31T05:41:35;98606.40;;;12.40
69545;BMP180;56766;52.260;20.746;2023-10-31T05:44:02;98599.40;;;12.40
69545;BMP180;56766;52.260;20.746;2023-10-31T05:46:28;98605.60;;;12.40
69545;BMP180;56766;52.260;20.746;2023-10-31T05:48:55;98603.40;;;12.44
69545;BMP180;56766;52.260;20.746;2023-10-31T05:51:22;98594.80;;;12.46
69545;BMP180;56766;52.260;20.746;2023-10-31T05:53:48;98589.20;;;12.50
69545;BMP180;56766;52.260;20.746;2023-10-31T05:56:16;98586.80;;;12.50
69545;BMP180;56766;52.260;20.746;2023-10-31T05:58:43;98584.60;;;12.50
69545;BMP180;56766;52.260;20.746;2023-10-31T06:01:09;98593.00;;;12.50
69545;BMP180;56766;52.260;20.746;2023-10-31T06:03:36;98592.60;;;12.60
69545;BMP180;56766;52.260;20.746;2023-10-31T06:06:04;98584.80;;;12.60
69545;BMP180;56766;52.260;20.746;2023-10-31T06:08:32;98580.40;;;12.60
69545;BMP180;56766;52.260;20.746;2023-10-31T06:10:59;98572.60;;;12.70
69545;BMP180;56766;52.260;20.746;2023-10-31T06:13:26;98576.00;;;12.70
69545;BMP180;56766;52.260;20.746;2023-10-31T06:15:55;98576.60;;;12.70
69545;BMP180;56766;52.260;20.746;2023-10-31T06:18:21;98571.60;;;12.76
69545;BMP180;56766;52.260;20.746;2023-10-31T06:20:48;98586.60;;;12.80
69545;BMP180;56766;52.260;20.746;2023-10-31T06:23:15;98583.40;;;12.90
69545;BMP180;56766;52.260;20.746;2023-10-31T06:25:41;98576.20;;;12.90
69545;BMP180;56766;52.260;20.746;2023-10-31T06:28:08;98576.80;;;13.00
69545;BMP180;56766;52.260;20.746;2023-10-31T06:30:35;98572.20;;;13.10
69545;BMP180;56766;52.260;20.746;2023-10-31T06:33:01;98564.60;;;13.10
69545;BMP180;56766;52.260;20.746;2023-10-31T06:35:29;98560.40;;;13.16
69545;BMP180;56766;52.260;20.746;2023-10-31T06:37:56;98554.00;;;13.20
69545;BMP180;56766;52.260;20.746;2023-10-31T06:40:27;98550.20;;;13.26
69545;BMP180;56766;52.260;20.746;2023-10-31T06:42:54;98549.40;;;13.30
69545;BMP180;56766;52.260;20.746;2023-10-31T06:45:20;98548.80;;;13.40
69545;BMP180;56766;52.260;20.746;2023-10-31T06:47:47;98558.40;;;13.40
69545;BMP180;56766;52.260;20.746;2023-10-31T06:50:14;98553.20;;;13.40
69545;BMP180;56766;52.260;20.746;2023-10-31T06:52:41;98556.20;;;13.40
69545;BMP180;56766;52.260;20.746;2023-10-31T06:55:08;98556.00;;;13.40
69545;BMP180;56766;52.260;20.746;2023-10-31T06:57:34;98554.00;;;13.40
69545;BMP180;56766;52.260;20.746;2023-10-31T07:00:01;98561.40;;;13.40
69545;BMP180;56766;52.260;20.746;2023-10-31T07:02:28;98562.80;;;13.40
69545;BMP180;56766;52.260;20.746;2023-10-31T07:04:57;98574.20;;;13.40
69545;BMP180;56766;52.260;20.746;2023-10-31T07:07:24;98569.20;;;13.40
69545;BMP180;56766;52.260;20.746;2023-10-31T07:09:51;98568.00;;;13.40
69545;BMP180;56766;52.260;20.746;2023-10-31T07:12:17;98568.00;;;13.32
69545;BMP180;56766;52.260;20.746;2023-10-31T07:14:44;98567.00;;;13.30
69545;BMP180;56766;52.260;20.746;2023-10-31T07:17:11;98554.80;;;13.30
69545;BMP180;56766;52.260;20.746;2023-10-31T07:19:37;98584.00;;;13.30
69545;BMP180;56766;52.260;20.746;2023-10-31T07:22:04;98575.60;;;13.36
69545;BMP180;56766;52.260;20.746;2023-10-31T07:24:31;98575.40;;;13.40
69545;BMP180;56766;52.260;20.746;2023-10-31T07:26:57;98560.80;;;13.38
69545;BMP180;56766;52.260;20.746;2023-10-31T07:29:24;98563.80;;;13.40
69545;BMP180;56766;52.260;20.746;2023-10-31T07:31:51;98558.40;;;13.40
69545;BMP180;56766;52.260;20.746;2023-10-31T07:34:18;98557.40;;;13.40
69545;BMP180;56766;52.260;20.746;2023-10-31T07:36:45;98562.80;;;13.40
69545;BMP180;56766;52.260;20.746;2023-10-31T07:39:11;98561.00;;;13.40
69545;BMP180;56766;52.260;20.746;2023-10-31T07:41:39;98564.40;;;13.40
69545;BMP180;56766;52.260;20.746;2023-10-31T07:44:06;98550.20;;;13.40
69545;BMP180;56766;52.260;20.746;2023-10-31T07:46:32;98546.20;;;13.40
69545;BMP180;56766;52.260;20.746;2023-10-31T07:48:59;98548.60;;;13.40
69545;BMP180;56766;52.260;20.746;2023-10-31T07:51:26;98539.60;;;13.40
69545;BMP180;56766;52.260;20.746;2023-10-31T07:53:52;98544.20;;;13.40
69545;BMP180;56766;52.260;20.746;2023-10-31T07:56:19;98535.00;;;13.40
69545;BMP180;56766;52.260;20.746;2023-10-31T07:58:50;98524.80;;;13.48
69545;BMP180;56766;52.260;20.746;2023-10-31T08:01:18;98531.40;;;13.50
69545;BMP180;56766;52.260;20.746;2023-10-31T08:03:46;98527.80;;;13.60
69545;BMP180;56766;52.260;20.746;2023-10-31T08:06:14;98526.00;;;13.60
69545;BMP180;56766;52.260;20.746;2023-10-31T08:08:41;98515.20;;;13.70
69545;BMP180;56766;52.260;20.746;2023-10-31T08:11:09;98514.60;;;13.70
69545;BMP180;56766;52.260;20.746;2023-10-31T08:13:38;98515.00;;;13.72
69545;BMP180;56766;52.260;20.746;2023-10-31T08:16:07;98515.60;;;13.80
69545;BMP180;56766;52.260;20.746;2023-10-31T08:18:35;98511.60;;;13.84
69545;BMP180;56766;52.260;20.746;2023-10-31T08:21:05;98518.20;;;13.90
69545;BMP180;56766;52.260;20.746;2023-10-31T08:23:32;98515.80;;;14.00
69545;BMP180;56766;52.260;20.746;2023-10-31T08:26:03;98510.00;;;14.00
69545;BMP180;56766;52.260;20.746;2023-10-31T08:28:30;98505.80;;;14.08
69545;BMP180;56766;52.260;20.746;2023-10-31T08:30:57;98496.40;;;14.10
69545;BMP180;56766;52.260;20.746;2023-10-31T08:33:24;98494.00;;;14.10
69545;BMP180;56766;52.260;20.746;2023-10-31T08:35:51;98494.60;;;14.10
69545;BMP180;56766;52.260;20.746;2023-10-31T08:38:17;98485.60;;;14.10
69545;BMP180;56766;52.260;20.746;2023-10-31T08:40:45;98488.80;;;14.20
69545;BMP180;56766;52.260;20.746;2023-10-31T08:43:15;98485.80;;;14.22
69545;BMP180;56766;52.260;20.746;2023-10-31T08:45:42;98492.40;;;14.30
69545;BMP180;56766;52.260;20.746;2023-10-31T08:48:10;98494.60;;;14.40
69545;BMP180;56766;52.260;20.746;2023-10-31T08:50:37;98503.00;;;14.50
69545;BMP180;56766;52.260;20.746;2023-10-31T08:53:05;98499.00;;;14.52
69545;BMP180;56766;52.260;20.746;2023-10-31T08:55:31;98489.80;;;14.60
69545;BMP180;56766;52.260;20.746;2023-10-31T08:57:58;98474.20;;;14.60
69545;BMP180;56766;52.260;20.746;2023-10-31T09:00:24;98468.80;;;14.64
69545;BMP180;56766;52.260;20.746;2023-10-31T09:02:52;98474.60;;;14.70
69545;BMP180;56766;52.260;20.746;2023-10-31T09:05:20;98479.40;;;14.70
69545;BMP180;56766;52.260;20.746;2023-10-31T09:07:46;98477.20;;;14.80
69545;BMP180;56766;52.260;20.746;2023-10-31T09:10:16;98476.40;;;14.82
69545;BMP180;56766;52.260;20.746;2023-10-31T09:12:43;98481.20;;;14.90
69545;BMP180;56766;52.260;20.746;2023-10-31T09:15:10;98481.80;;;14.90
69545;BMP180;56766;52.260;20.746;2023-10-31T09:17:38;98481.20;;;14.90
69545;BMP180;56766;52.260;20.746;2023-10-31T09:20:05;98479.20;;;14.90
69545;BMP180;56766;52.260;20.746;2023-10-31T09:22:34;98491.80;;;14.90
69545;BMP180;56766;52.260;20.746;2023-10-31T09:25:01;98499.00;;;14.90
69545;BMP180;56766;52.260;20.746;2023-10-31T09:27:30;98506.80;;;14.90
69545;BMP180;56766;52.260;20.746;2023-10-31T09:29:57;98505.20;;;14.90
69545;BMP180;56766;52.260;20.746;2023-10-31T09:32:23;98517.00;;;14.90
69545;BMP180;56766;52.260;20.746;2023-10-31T09:34:50;98515.00;;;14.90
69545;BMP180;56766;52.260;20.746;2023-10-31T09:37:17;98514.40;;;14.80
69545;BMP180;56766;52.260;20.746;2023-10-31T09:39:43;98515.60;;;14.90
69545;BMP180;56766;52.260;20.746;2023-10-31T09:42:10;98523.00;;;14.90
69545;BMP180;56766;52.260;20.746;2023-10-31T09:44:37;98530.60;;;15.00
69545;BMP180;56766;52.260;20.746;2023-10-31T09:47:06;98530.40;;;15.10
69545;BMP180;56766;52.260;20.746;2023-10-31T09:49:34;98529.40;;;15.10
69545;BMP180;56766;52.260;20.746;2023-10-31T09:52:01;98528.20;;;15.20
69545;BMP180;56766;52.260;20.746;2023-10-31T09:54:28;98533.60;;;15.20
69545;BMP180;56766;52.260;20.746;2023-10-31T09:56:56;98531.00;;;15.30
69545;BMP180;56766;52.260;20.746;2023-10-31T09:59:22;98523.40;;;15.44
69545;BMP180;56766;52.260;20.746;2023-10-31T10:01:50;98526.40;;;15.50
69545;BMP180;56766;52.260;20.746;2023-10-31T10:04:16;98514.20;;;15.54
69545;BMP180;56766;52.260;20.746;2023-10-31T10:07:02;98517.80;;;15.60
69545;BMP180;56766;52.260;20.746;2023-10-31T10:09:29;98524.80;;;15.68
69545;BMP180;56766;52.260;20.746;2023-10-31T10:12:02;98531.40;;;15.70
69545;BMP180;56766;52.260;20.746;2023-10-31T10:14:28;98527.60;;;15.80
69545;BMP180;56766;52.260;20.746;2023-10-31T10:16:58;98529.40;;;15.90
69545;BMP180;56766;52.260;20.746;2023-10-31T10:19:24;98540.60;;;16.08
69545;BMP180;56766;52.260;20.746;2023-10-31T10:21:58;98531.40;;;16.20
69545;BMP180;56766;52.260;20.746;2023-10-31T10:24:25;98531.80;;;16.40
69545;BMP180;56766;52.260;20.746;2023-10-31T10:26:52;98527.40;;;16.50
69545;BMP180;56766;52.260;20.746;2023-10-31T10:29:19;98532.20;;;16.60
69545;BMP180;56766;52.260;20.746;2023-10-31T10:31:46;98532.40;;;16.62
69545;BMP180;56766;52.260;20.746;2023-10-31T10:34:16;98536.60;;;16.60
69545;BMP180;56766;52.260;20.746;2023-10-31T10:36:48;98538.80;;;16.60
69545;BMP180;56766;52.260;20.746;2023-10-31T10:39:22;98542.20;;;16.50
69545;BMP180;56766;52.260;20.746;2023-10-31T10:41:55;98535.80;;;16.50
69545;BMP180;56766;52.260;20.746;2023-10-31T10:44:44;98537.80;;;16.50
69545;BMP180;56766;52.260;20.746;2023-10-31T10:47:13;98534.60;;;16.50
69545;BMP180;56766;52.260;20.746;2023-10-31T10:49:42;98524.20;;;16.40
69545;BMP180;56766;52.260;20.746;2023-10-31T10:52:28;98537.20;;;16.50
69545;BMP180;56766;52.260;20.746;2023-10-31T10:55:12;98535.60;;;16.62
69545;BMP180;56766;52.260;20.746;2023-10-31T10:58:05;98535.40;;;16.80
69545;BMP180;56766;52.260;20.746;2023-10-31T11:00:32;98532.40;;;16.90
69545;BMP180;56766;52.260;20.746;2023-10-31T11:03:02;98542.60;;;17.00
69545;BMP180;56766;52.260;20.746;2023-10-31T11:05:31;98546.80;;;17.00
69545;BMP180;56766;52.260;20.746;2023-10-31T11:08:01;98540.20;;;17.00
69545;BMP180;56766;52.260;20.746;2023-10-31T11:10:29;98550.00;;;17.00
69545;BMP180;56766;52.260;20.746;2023-10-31T11:12:56;98552.20;;;17.00
69545;BMP180;56766;52.260;20.746;2023-10-31T11:15:26;98550.60;;;16.90
69545;BMP180;56766;52.260;20.746;2023-10-31T11:17:56;98558.00;;;16.90
69545;BMP180;56766;52.260;20.746;2023-10-31T11:20:26;98558.60;;;16.80
69545;BMP180;56766;52.260;20.746;2023-10-31T11:22:56;98567.80;;;16.70
69545;BMP180;56766;52.260;20.746;2023-10-31T11:25:32;98575.40;;;16.70
69545;BMP180;56766;52.260;20.746;2023-10-31T11:28:17;98574.20;;;16.64
69545;BMP180;56766;52.260;20.746;2023-10-31T11:30:49;98579.00;;;16.60
69545;BMP180;56766;52.260;20.746;2023-10-31T11:33:20;98583.80;;;16.60
69545;BMP180;56766;52.260;20.746;2023-10-31T11:36:00;98590.00;;;16.56
69545;BMP180;56766;52.260;20.746;2023-10-31T11:38:34;98589.40;;;16.58
69545;BMP180;56766;52.260;20.746;2023-10-31T11:41:04;98589.00;;;16.60
69545;BMP180;56766;52.260;20.746;2023-10-31T11:46:20;98584.60;;;16.70
69545;BMP180;56766;52.260;20.746;2023-10-31T11:48:53;98586.00;;;16.70
69545;BMP180;56766;52.260;20.746;2023-10-31T11:51:22;98587.40;;;16.74
69545;BMP180;56766;52.260;20.746;2023-10-31T11:53:50;98589.40;;;16.70
69545;BMP180;56766;52.260;20.746;2023-10-31T11:56:16;98589.80;;;16.80
69545;BMP180;56766;52.260;20.746;2023-10-31T11:58:43;98591.00;;;16.90
69545;BMP180;56766;52.260;20.746;2023-10-31T12:01:10;98599.20;;;17.00
69545;BMP180;56766;52.260;20.746;2023-10-31T12:03:42;98592.80;;;17.08
69545;BMP180;56766;52.260;20.746;2023-10-31T12:06:10;98601.20;;;17.10
69545;BMP180;56766;52.260;20.746;2023-10-31T12:08:40;98603.00;;;17.10
69545;BMP180;56766;52.260;20.746;2023-10-31T12:11:11;98608.40;;;17.10
69545;BMP180;56766;52.260;20.746;2023-10-31T12:13:42;98601.80;;;17.00
69545;BMP180;56766;52.260;20.746;2023-10-31T12:16:10;98613.20;;;17.00
69545;BMP180;56766;52.260;20.746;2023-10-31T12:18:37;98614.60;;;17.00
69545;BMP180;56766;52.260;20.746;2023-10-31T12:21:07;98620.60;;;16.90
69545;BMP180;56766;52.260;20.746;2023-10-31T12:23:40;98624.60;;;16.90
69545;BMP180;56766;52.260;20.746;2023-10-31T12:26:07;98619.00;;;16.90
69545;BMP180;56766;52.260;20.746;2023-10-31T12:28:34;98620.80;;;16.80
69545;BMP180;56766;52.260;20.746;2023-10-31T12:31:02;98624.20;;;16.70
69545;BMP180;56766;52.260;20.746;2023-10-31T12:33:29;98632.40;;;16.60
69545;BMP180;56766;52.260;20.746;2023-10-31T12:35:59;98636.40;;;16.50
69545;BMP180;56766;52.260;20.746;2023-10-31T12:38:28;98647.60;;;16.40
69545;BMP180;56766;52.260;20.746;2023-10-31T12:40:57;98647.60;;;16.30
69545;BMP180;56766;52.260;20.746;2023-10-31T12:43:25;98649.20;;;16.20
69545;BMP180;56766;52.260;20.746;2023-10-31T12:45:52;98646.20;;;16.20
69545;BMP180;56766;52.260;20.746;2023-10-31T12:48:24;98646.20;;;16.10
69545;BMP180;56766;52.260;20.746;2023-10-31T12:51:06;98648.80;;;16.10
69545;BMP180;56766;52.260;20.746;2023-10-31T12:53:36;98645.00;;;16.00
69545;BMP180;56766;52.260;20.746;2023-10-31T12:56:03;98651.20;;;16.00
69545;BMP180;56766;52.260;20.746;2023-10-31T12:58:30;98657.80;;;15.90
69545;BMP180;56766;52.260;20.746;2023-10-31T13:00:56;98666.00;;;15.90
69545;BMP180;56766;52.260;20.746;2023-10-31T13:03:23;98672.00;;;15.98
69545;BMP180;56766;52.260;20.746;2023-10-31T13:05:50;98688.40;;;16.00
69545;BMP180;56766;52.260;20.746;2023-10-31T13:08:17;98693.40;;;16.10
69545;BMP180;56766;52.260;20.746;2023-10-31T13:10:44;98703.00;;;16.12
69545;BMP180;56766;52.260;20.746;2023-10-31T13:13:11;98701.00;;;16.20
69545;BMP180;56766;52.260;20.746;2023-10-31T13:15:38;98703.40;;;16.30
69545;BMP180;56766;52.260;20.746;2023-10-31T13:18:05;98703.80;;;16.30
69545;BMP180;56766;52.260;20.746;2023-10-31T13:20:32;98714.00;;;16.34
69545;BMP180;56766;52.260;20.746;2023-10-31T13:22:59;98708.80;;;16.40
69545;BMP180;56766;52.260;20.746;2023-10-31T13:25:30;98705.20;;;16.40
69545;BMP180;56766;52.260;20.746;2023-10-31T13:27:58;98712.20;;;16.40
69545;BMP180;56766;52.260;20.746;2023-10-31T13:30:25;98719.80;;;16.30
69545;BMP180;56766;52.260;20.746;2023-10-31T13:32:51;98721.80;;;16.22
69545;BMP180;56766;52.260;20.746;2023-10-31T13:35:19;98720.00;;;16.20
69545;BMP180;56766;52.260;20.746;2023-10-31T13:37:46;98714.60;;;16.04
69545;BMP180;56766;52.260;20.746;2023-10-31T13:40:13;98718.20;;;16.00
69545;BMP180;56766;52.260;20.746;2023-10-31T13:42:40;98721.80;;;15.90
69545;BMP180;56766;52.260;20.746;2023-10-31T13:45:07;98728.80;;;15.88
69545;BMP180;56766;52.260;20.746;2023-10-31T13:47:33;98720.20;;;15.80
69545;BMP180;56766;52.260;20.746;2023-10-31T13:50:01;98716.40;;;15.82
69545;BMP180;56766;52.260;20.746;2023-10-31T13:52:28;98722.20;;;15.86
69545;BMP180;56766;52.260;20.746;2023-10-31T13:54:54;98732.20;;;15.84
69545;BMP180;56766;52.260;20.746;2023-10-31T13:57:21;98734.80;;;15.82
69545;BMP180;56766;52.260;20.746;2023-10-31T13:59:50;98733.60;;;15.90
69545;BMP180;56766;52.260;20.746;2023-10-31T14:02:17;98739.80;;;15.90